Time;durP1;ratioP1;P1;durP2;ratioP2;P2;SDS_P1;SDS_P2;PMS_P1;PMS_P2;Temp;Humidity;BMP_temperature;BMP_pressure;BME280_temperature;BME280_humidity;BME280_pressure;Samples;Min_cycle;Max_cycle;Signal;HPM_P1;HPM_P2
2022/11/06 00:00:45;;;;;;;6.50;5.65;;;5.00;99.90;;;;;;5073708;28;20219;-65
2022/11/06 00:03:11;;;;;;;6.47;5.75;;;5.00;99.90;;;;;;5072781;28;20201;-66
2022/11/06 00:08:32;;;;;;;7.82;6.00;;;5.10;99.90;;;;;;5074153;28;20210;-66
2022/11/06 00:10:59;;;;;;;7.15;5.60;;;5.00;99.90;;;;;;5073278;28;20217;-66
2022/11/06 00:13:27;;;;;;;7.82;5.57;;;5.00;99.90;;;;;;5073473;28;20674;-65
2022/11/06 00:15:54;;;;;;;6.90;5.70;;;5.00;99.90;;;;;;5073717;28;20567;-66
2022/11/06 00:18:21;;;;;;;8.40;5.72;;;5.00;99.90;;;;;;5073629;28;20288;-66
2022/11/06 00:20:48;;;;;;;9.15;6.20;;;5.00;99.90;;;;;;5073583;28;20228;-65
2022/11/06 00:23:14;;;;;;;8.70;5.93;;;5.00;99.90;;;;;;5072968;28;20581;-66
2022/11/06 00:25:42;;;;;;;7.70;6.30;;;5.00;99.90;;;;;;5073765;28;20228;-66
2022/11/06 00:28:09;;;;;;;6.70;6.00;;;5.00;99.90;;;;;;5073235;28;20212;-66
2022/11/06 00:30:37;;;;;;;8.68;5.20;;;4.90;99.90;;;;;;5073666;28;20214;-66
2022/11/06 00:33:04;;;;;;;7.80;5.38;;;4.80;99.90;;;;;;5072951;28;20224;-66
2022/11/06 00:35:31;;;;;;;9.40;6.15;;;4.80;99.90;;;;;;5073390;28;20236;-65
2022/11/06 00:37:58;;;;;;;7.38;5.43;;;4.70;99.90;;;;;;5073376;28;20205;-66
2022/11/06 00:40:24;;;;;;;7.75;5.70;;;4.60;99.90;;;;;;5073166;28;20232;-66
2022/11/06 00:42:55;;;;;;;7.65;5.20;;;4.60;99.90;;;;;;5072872;28;20201;-67
2022/11/06 00:45:22;;;;;;;5.38;4.72;;;4.50;99.90;;;;;;5073273;28;20710;-67
2022/11/06 00:47:51;;;;;;;6.25;5.28;;;4.40;99.90;;;;;;5073138;28;20459;-66
2022/11/06 00:50:18;;;;;;;9.00;5.00;;;4.40;99.90;;;;;;5071785;28;20197;-66
2022/11/06 00:52:44;;;;;;;8.50;5.25;;;4.40;99.90;;;;;;5072614;28;20208;-66
2022/11/06 00:55:11;;;;;;;7.57;6.88;;;4.30;99.90;;;;;;5072897;28;20241;-66
2022/11/06 00:57:38;;;;;;;6.47;5.47;;;4.30;99.90;;;;;;5073033;28;20212;-66
2022/11/06 01:00:06;;;;;;;6.90;4.88;;;4.30;99.90;;;;;;5072619;28;20225;-66
2022/11/06 01:02:32;;;;;;;7.78;5.78;;;4.20;99.90;;;;;;5072687;28;20201;-66
2022/11/06 01:05:01;;;;;;;7.05;5.50;;;4.20;99.90;;;;;;5072634;28;20229;-66
2022/11/06 01:07:27;;;;;;;6.32;5.05;;;4.10;99.90;;;;;;5073187;28;20573;-66
2022/11/06 01:09:54;;;;;;;8.13;5.30;;;4.10;99.90;;;;;;5072537;28;20202;-66
2022/11/06 01:12:21;;;;;;;7.10;5.38;;;4.10;99.90;;;;;;5072433;28;20201;-66
2022/11/06 01:14:48;;;;;;;7.55;5.50;;;4.10;99.90;;;;;;5072779;28;20216;-65
2022/11/06 01:17:15;;;;;;;7.40;5.03;;;4.00;99.90;;;;;;5072632;28;20205;-66
2022/11/06 01:19:41;;;;;;;6.60;5.07;;;4.00;99.90;;;;;;5072688;28;20590;-65
2022/11/06 01:22:09;;;;;;;7.95;5.50;;;3.90;99.90;;;;;;5071787;28;20208;-67
2022/11/06 01:24:36;;;;;;;6.60;5.45;;;3.90;99.90;;;;;;5072555;28;20228;-66
2022/11/06 01:27:03;;;;;;;6.78;5.45;;;3.80;99.90;;;;;;5072475;28;20579;-66
2022/11/06 01:29:30;;;;;;;6.50;5.00;;;3.80;99.90;;;;;;5072409;28;20209;-67
2022/11/06 01:31:56;;;;;;;5.95;4.97;;;3.80;99.90;;;;;;5071870;28;20295;-66
2022/11/06 01:34:23;;;;;;;5.18;4.53;;;3.70;99.90;;;;;;5072298;28;20201;-65
2022/11/06 01:36:50;;;;;;;6.05;5.03;;;3.70;99.90;;;;;;5072454;28;20205;-66
2022/11/06 01:39:18;;;;;;;8.70;5.75;;;3.70;99.90;;;;;;5072278;28;20288;-66
2022/11/06 01:41:47;;;;;;;7.60;5.32;;;3.70;99.90;;;;;;5071652;28;20602;-66
2022/11/06 01:44:51;;;;;;;7.22;4.90;;;3.60;99.90;;;;;;5072201;28;20209;-66
2022/11/06 01:47:23;;;;;;;6.88;4.65;;;3.70;99.90;;;;;;5072026;28;20208;-66
2022/11/06 01:49:52;;;;;;;7.72;5.18;;;3.60;99.90;;;;;;5071948;28;20685;-65
2022/11/06 01:52:20;;;;;;;6.15;4.40;;;3.60;99.90;;;;;;5071383;28;20225;-66
2022/11/06 01:54:52;;;;;;;6.60;5.22;;;3.60;99.90;;;;;;5071989;28;20216;-66
2022/11/06 01:57:18;;;;;;;5.78;4.05;;;3.60;99.90;;;;;;5071944;28;20206;-66
2022/11/06 01:59:46;;;;;;;7.10;5.10;;;3.60;99.90;;;;;;5071736;28;20582;-66
2022/11/06 02:02:14;;;;;;;6.07;4.72;;;3.50;99.90;;;;;;5070936;28;20578;-66
2022/11/06 02:04:43;;;;;;;6.45;5.10;;;3.40;99.90;;;;;;5071623;28;20597;-66
2022/11/06 02:07:10;;;;;;;6.82;5.03;;;3.40;99.90;;;;;;5071434;28;20215;-67
2022/11/06 02:09:37;;;;;;;5.95;4.75;;;3.40;99.90;;;;;;5071699;28;20205;-66
2022/11/06 02:12:13;;;;;;;7.18;4.93;;;3.40;99.90;;;;;;5070785;28;20193;-66
2022/11/06 02:14:56;;;;;;;5.47;4.63;;;3.40;99.90;;;;;;5071508;28;20224;-66
2022/11/06 02:17:34;;;;;;;5.80;4.20;;;3.40;99.90;;;;;;5071509;28;20206;-66
2022/11/06 02:20:06;;;;;;;7.38;4.72;;;3.40;99.90;;;;;;5071167;28;20209;-65
2022/11/06 02:22:51;;;;;;;5.65;4.15;;;3.30;99.90;;;;;;5070792;28;20724;-66
2022/11/06 02:25:30;;;;;;;6.82;4.57;;;3.30;99.90;;;;;;5071247;28;20313;-66
2022/11/06 02:28:02;;;;;;;7.72;4.55;;;3.30;99.90;;;;;;5071116;28;20296;-65
2022/11/06 02:30:32;;;;;;;5.80;5.20;;;3.30;99.90;;;;;;5071286;28;20221;-66
2022/11/06 02:33:02;;;;;;;6.95;4.20;;;3.20;99.90;;;;;;5070453;28;20698;-65
2022/11/06 02:35:35;;;;;;;6.68;5.13;;;3.20;99.90;;;;;;5070928;28;20311;-65
2022/11/06 02:38:08;;;;;;;5.28;4.78;;;3.20;99.90;;;;;;5070874;28;20227;-65
2022/11/06 02:40:39;;;;;;;10.10;5.68;;;3.20;99.90;;;;;;5070868;28;20311;-64
2022/11/06 02:43:09;;;;;;;4.03;3.72;;;3.10;99.90;;;;;;5070432;28;20201;-65
2022/11/06 02:45:40;;;;;;;8.27;4.50;;;3.20;99.90;;;;;;5070859;28;20259;-65
2022/11/06 02:48:10;;;;;;;5.22;4.70;;;3.20;99.90;;;;;;5070747;28;20205;-65
2022/11/06 02:50:42;;;;;;;5.30;4.18;;;3.20;99.90;;;;;;5070897;28;20201;-64
2022/11/06 02:53:11;;;;;;;6.63;4.35;;;3.20;99.90;;;;;;5069977;28;20606;-64
2022/11/06 02:55:40;;;;;;;5.68;4.88;;;3.10;99.90;;;;;;5070831;28;20233;-65
2022/11/06 02:58:12;;;;;;;4.50;4.10;;;3.10;99.90;;;;;;5070311;28;20213;-65
2022/11/06 03:00:41;;;;;;;6.20;3.50;;;3.10;99.90;;;;;;5070689;28;20225;-65
2022/11/06 03:03:15;;;;;;;5.43;4.70;;;3.10;99.90;;;;;;5070013;28;20279;-64
2022/11/06 03:05:48;;;;;;;4.00;3.58;;;3.00;99.90;;;;;;5070514;28;20224;-64
2022/11/06 03:08:22;;;;;;;5.22;4.50;;;3.00;99.90;;;;;;5070638;28;20209;-64
2022/11/06 03:10:58;;;;;;;5.18;4.35;;;3.00;99.90;;;;;;5070506;28;20203;-64
2022/11/06 03:13:33;;;;;;;3.85;3.55;;;2.90;99.90;;;;;;5069515;28;20668;-64
2022/11/06 03:16:04;;;;;;;8.00;4.13;;;3.00;99.90;;;;;;5070365;28;20247;-65
2022/11/06 03:18:38;;;;;;;7.25;4.25;;;2.90;99.90;;;;;;5070591;28;20205;-64
2022/11/06 03:21:10;;;;;;;6.00;3.85;;;2.80;99.90;;;;;;5070120;28;20221;-65
2022/11/06 03:23:43;;;;;;;5.07;3.90;;;2.90;99.90;;;;;;5070294;28;20212;-64
2022/11/06 03:26:15;;;;;;;6.18;4.53;;;2.80;99.90;;;;;;5070390;28;20225;-64
2022/11/06 03:28:51;;;;;;;7.55;4.28;;;2.70;99.90;;;;;;5070326;28;20574;-63
2022/11/06 03:31:23;;;;;;;4.75;4.07;;;2.70;99.90;;;;;;5069838;28;20672;-64
2022/11/06 03:33:53;;;;;;;5.07;3.90;;;2.70;99.90;;;;;;5070334;28;20204;-65
2022/11/06 03:36:24;;;;;;;5.50;5.00;;;2.70;99.90;;;;;;5070405;28;20217;-64
2022/11/06 03:38:55;;;;;;;5.15;4.32;;;2.70;99.90;;;;;;5070281;28;20235;-65
2022/11/06 03:41:25;;;;;;;5.80;4.50;;;2.60;99.90;;;;;;5069768;28;20224;-65
2022/11/06 03:43:56;;;;;;;6.03;3.95;;;2.60;99.90;;;;;;5070196;28;20207;-65
2022/11/06 03:46:24;;;;;;;5.47;4.07;;;2.60;99.90;;;;;;5070118;28;20873;-65
2022/11/06 03:48:55;;;;;;;5.60;4.50;;;2.60;99.90;;;;;;5070225;28;20557;-65
2022/11/06 03:51:27;;;;;;;7.75;4.55;;;2.60;99.90;;;;;;5069682;28;20212;-65
2022/11/06 03:53:59;;;;;;;7.50;5.50;;;2.50;99.90;;;;;;5069925;28;20278;-65
2022/11/06 03:56:32;;;;;;;6.20;4.53;;;2.50;99.90;;;;;;5070099;28;20229;-64
2022/11/06 03:59:04;;;;;;;4.35;3.40;;;2.50;99.90;;;;;;5069858;28;20292;-65
2022/11/06 04:01:35;;;;;;;6.68;4.50;;;2.40;99.90;;;;;;5069809;28;20201;-65
2022/11/06 04:04:06;;;;;;;5.85;4.35;;;2.40;99.90;;;;;;5069693;28;20209;-64
2022/11/06 04:06:37;;;;;;;5.82;5.15;;;2.40;99.90;;;;;;5070235;28;20201;-65
2022/11/06 04:14:41;;;;;;;5.88;3.90;;;2.30;99.90;;;;;;5070096;28;20339;-65
2022/11/06 04:17:12;;;;;;;6.32;4.72;;;2.30;99.90;;;;;;5069734;28;20620;-64
2022/11/06 04:19:49;;;;;;;4.28;3.67;;;2.20;99.90;;;;;;5069917;28;20212;-64
2022/11/06 04:22:28;;;;;;;6.32;4.55;;;2.20;99.90;;;;;;5069206;28;20204;-64
2022/11/06 04:28:06;;;;;;;6.95;4.63;;;2.30;99.90;;;;;;5055508;28;20691;-65
2022/11/06 04:30:43;;;;;;;5.82;4.97;;;2.30;99.90;;;;;;5073527;28;20208;-65
2022/11/06 04:33:14;;;;;;;5.72;4.53;;;2.30;99.90;;;;;;5072829;28;20211;-63
2022/11/06 04:35:54;;;;;;;7.40;4.85;;;2.40;99.90;;;;;;5073322;28;20579;-63
2022/11/06 04:38:30;;;;;;;6.38;4.43;;;2.40;99.90;;;;;;5073399;28;20212;-64
2022/11/06 04:41:11;;;;;;;5.47;4.15;;;2.40;99.90;;;;;;5073080;28;20204;-64
2022/11/06 04:43:43;;;;;;;5.75;4.35;;;2.40;99.90;;;;;;5073352;28;20209;-64
2022/11/06 04:46:16;;;;;;;7.80;6.15;;;2.40;99.90;;;;;;5072906;28;20236;-64
2022/11/06 04:48:43;;;;;;;6.25;4.13;;;2.40;99.90;;;;;;5073391;28;20213;-64
2022/11/06 04:51:11;;;;;;;6.68;3.92;;;2.30;99.90;;;;;;5072296;28;20213;-63
2022/11/06 04:53:40;;;;;;;6.07;4.57;;;2.30;99.90;;;;;;5073624;28;20205;-65
2022/11/06 04:56:10;;;;;;;5.00;4.53;;;2.30;99.90;;;;;;5073133;28;20603;-64
2022/11/06 04:58:38;;;;;;;3.70;3.40;;;2.20;99.90;;;;;;5073887;28;20212;-64
2022/11/06 05:01:05;;;;;;;6.10;4.50;;;2.20;99.90;;;;;;5135914;22;20212;-67
2022/11/06 05:03:33;;;;;;;4.95;3.70;;;2.20;99.90;;;;;;5142436;22;20788;-68
2022/11/06 05:06:00;;;;;;;5.03;3.97;;;2.10;99.90;;;;;;5052473;28;20228;-68
2022/11/06 05:08:26;;;;;;;6.70;4.40;;;2.10;99.90;;;;;;5052967;28;20221;-67
2022/11/06 05:10:53;;;;;;;6.15;3.80;;;2.10;99.90;;;;;;5052438;28;20222;-67
2022/11/06 05:13:20;;;;;;;8.38;5.55;;;2.00;99.90;;;;;;5052219;28;20210;-67
2022/11/06 05:15:47;;;;;;;5.65;4.82;;;2.00;99.90;;;;;;5052396;28;20226;-68
2022/11/06 05:18:13;;;;;;;6.45;4.65;;;1.90;99.90;;;;;;5052155;28;20220;-68
2022/11/06 05:20:41;;;;;;;4.88;4.35;;;1.90;99.90;;;;;;5052341;28;20206;-67
2022/11/06 05:23:07;;;;;;;5.70;4.22;;;1.90;99.90;;;;;;5051658;28;20217;-67
2022/11/06 05:25:36;;;;;;;6.00;4.20;;;1.80;99.90;;;;;;5052514;28;20218;-68
2022/11/06 05:28:05;;;;;;;9.35;4.47;;;1.80;99.90;;;;;;5051935;28;20206;-68
2022/11/06 05:30:33;;;;;;;5.15;3.80;;;1.80;99.90;;;;;;5052276;28;20205;-67
2022/11/06 05:32:59;;;;;;;5.47;3.28;;;1.70;99.90;;;;;;5051489;28;20217;-68
2022/11/06 05:35:27;;;;;;;4.85;4.00;;;1.70;99.90;;;;;;5052298;28;20500;-68
2022/11/06 05:38:00;;;;;;;4.97;3.85;;;1.70;99.90;;;;;;5051007;28;20696;-68
2022/11/06 05:40:26;;;;;;;7.32;4.50;;;1.70;99.90;;;;;;5052237;28;20216;-68
2022/11/06 05:42:53;;;;;;;3.97;3.40;;;1.70;99.90;;;;;;5051740;28;20197;-68
2022/11/06 05:45:20;;;;;;;4.35;3.60;;;1.70;99.90;;;;;;5051863;28;20225;-67
2022/11/06 05:47:46;;;;;;;4.28;3.58;;;1.70;99.90;;;;;;5052027;28;20216;-68
2022/11/06 05:50:13;;;;;;;3.88;3.25;;;1.70;99.90;;;;;;5051752;28;20197;-68
2022/11/06 05:52:40;;;;;;;4.20;3.55;;;1.70;99.90;;;;;;5051334;28;20225;-67
2022/11/06 05:55:09;;;;;;;4.68;3.88;;;1.60;99.90;;;;;;5051399;28;20319;-67
2022/11/06 05:57:36;;;;;;;4.53;4.13;;;1.60;99.90;;;;;;5075916;22;20275;-92
2022/11/06 06:00:05;;;;;;;4.70;3.50;;;1.60;99.90;;;;;;5062191;28;20572;-91
2022/11/06 06:02:31;;;;;;;4.10;3.50;;;1.50;99.90;;;;;;5056543;28;20209;-92
2022/11/06 06:04:58;;;;;;;3.92;3.58;;;1.50;99.90;;;;;;5054901;28;20731;-91
2022/11/06 06:07:25;;;;;;;4.70;3.72;;;1.50;99.90;;;;;;5065501;28;20289;-92
2022/11/06 06:09:52;;;;;;;3.92;3.22;;;1.50;99.90;;;;;;5063762;28;20297;-91
2022/11/06 06:12:22;;;;;;;4.63;3.80;;;1.50;99.90;;;;;;5054052;28;20224;-91
2022/11/06 06:14:49;;;;;;;4.70;3.15;;;1.50;99.90;;;;;;5054335;28;20216;-91
2022/11/06 06:17:16;;;;;;;5.47;3.97;;;1.50;99.90;;;;;;5054395;28;20232;-92
2022/11/06 06:19:43;;;;;;;5.30;3.35;;;1.60;99.90;;;;;;5055267;28;20223;-92
2022/11/06 06:22:10;;;;;;;4.28;3.80;;;1.60;99.90;;;;;;5056924;28;20206;-92
2022/11/06 06:24:37;;;;;;;4.38;3.70;;;1.60;99.90;;;;;;5056550;28;20308;-91
2022/11/06 06:27:04;;;;;;;4.40;4.00;;;1.60;99.90;;;;;;5066745;28;20225;-91
2022/11/06 06:29:32;;;;;;;4.88;3.30;;;1.60;99.90;;;;;;5055690;28;20296;-93
2022/11/06 06:32:00;;;;;;;5.00;4.13;;;1.70;99.90;;;;;;5055465;28;20222;-91
2022/11/06 06:34:27;;;;;;;4.03;3.50;;;1.70;99.90;;;;;;5055609;28;20746;-92
2022/11/06 06:36:54;;;;;;;4.75;3.13;;;1.70;99.90;;;;;;5055006;28;20225;-91
2022/11/06 06:39:21;;;;;;;5.50;3.60;;;1.70;99.90;;;;;;5054997;28;20593;-92
2022/11/06 06:41:48;;;;;;;7.10;4.22;;;1.70;99.90;;;;;;5055270;28;20294;-91
2022/11/06 06:44:16;;;;;;;3.70;3.20;;;1.70;99.90;;;;;;5055224;28;20689;-91
2022/11/06 06:46:44;;;;;;;4.35;3.65;;;1.70;99.90;;;;;;5054735;28;20271;-91
2022/11/06 06:49:11;;;;;;;4.75;4.05;;;1.70;99.90;;;;;;5054348;28;20198;-91
2022/11/06 06:51:38;;;;;;;4.50;3.63;;;1.70;99.90;;;;;;5054289;28;20219;-92
2022/11/06 06:54:05;;;;;;;6.03;4.25;;;1.80;99.90;;;;;;5054111;28;20212;-92
2022/11/06 06:56:32;;;;;;;5.53;3.38;;;1.90;99.90;;;;;;5053739;28;20209;-91
2022/11/06 06:58:59;;;;;;;6.95;3.80;;;1.90;99.90;;;;;;5054527;28;20689;-91
2022/11/06 07:01:25;;;;;;;4.00;3.22;;;2.00;99.90;;;;;;5053257;28;20213;-91
2022/11/06 07:03:54;;;;;;;6.68;4.38;;;2.00;99.90;;;;;;5053898;28;20217;-92
2022/11/06 07:06:20;;;;;;;7.45;3.33;;;2.00;99.90;;;;;;5054858;28;20301;-90
2022/11/06 07:08:47;;;;;;;7.00;3.83;;;2.20;99.90;;;;;;5053513;28;20231;-90
2022/11/06 07:11:15;;;;;;;4.78;4.25;;;2.40;99.90;;;;;;5052475;28;20206;-89
2022/11/06 07:13:42;;;;;;;4.05;3.03;;;2.50;99.90;;;;;;5053078;28;20264;-90
2022/11/06 07:16:11;;;;;;;4.20;3.55;;;2.50;99.90;;;;;;5052665;28;20301;-91
2022/11/06 07:18:39;;;;;;;3.88;3.25;;;2.40;99.90;;;;;;5052885;28;20777;-91
2022/11/06 07:21:08;;;;;;;6.60;3.70;;;2.40;99.90;;;;;;5052665;28;20444;-91
2022/11/06 07:23:36;;;;;;;4.05;3.50;;;2.50;99.90;;;;;;5052574;28;20205;-91
2022/11/06 07:26:03;;;;;;;3.80;3.50;;;2.50;99.90;;;;;;5052715;28;20212;-91
2022/11/06 07:28:31;;;;;;;5.45;3.67;;;2.50;99.90;;;;;;5052430;28;20225;-91
2022/11/06 07:30:59;;;;;;;5.32;4.07;;;2.80;99.90;;;;;;5052714;28;20575;-91
2022/11/06 07:33:26;;;;;;;5.85;3.92;;;3.10;99.90;;;;;;5052473;28;20241;-91
2022/11/06 07:35:53;;;;;;;6.38;4.75;;;3.40;99.90;;;;;;5052222;28;20202;-91
2022/11/06 07:38:21;;;;;;;5.75;4.20;;;3.70;99.90;;;;;;5052845;28;20698;-91
2022/11/06 07:40:48;;;;;;;5.20;4.63;;;3.90;99.90;;;;;;5052288;28;20281;-90
2022/11/06 07:43:15;;;;;;;5.75;4.13;;;4.00;99.90;;;;;;5052311;28;20208;-90
2022/11/06 07:45:42;;;;;;;4.95;4.10;;;4.00;99.90;;;;;;5052447;28;20197;-88
2022/11/06 07:48:09;;;;;;;4.15;3.70;;;4.10;99.90;;;;;;5052377;28;20604;-91
2022/11/06 07:50:36;;;;;;;4.13;3.72;;;4.10;99.90;;;;;;5052443;28;20305;-92
2022/11/06 07:53:03;;;;;;;6.97;4.55;;;4.10;99.90;;;;;;5052242;28;20217;-92
2022/11/06 07:55:31;;;;;;;6.63;4.60;;;4.10;99.90;;;;;;5053383;28;20232;-91
2022/11/06 07:57:59;;;;;;;6.82;4.40;;;4.20;99.90;;;;;;5047484;28;20517;-93
2022/11/06 08:00:26;;;;;;;5.28;4.32;;;4.20;99.90;;;;;;5038088;28;20209;-92
2022/11/06 08:02:53;;;;;;;5.10;4.60;;;4.30;99.90;;;;;;5038198;28;20208;-91
2022/11/06 08:05:20;;;;;;;4.97;4.43;;;4.40;99.90;;;;;;5037993;28;20204;-91
2022/11/06 08:07:47;;;;;;;6.18;4.15;;;4.60;99.90;;;;;;5037510;28;20280;-92
2022/11/06 08:10:13;;;;;;;5.05;4.22;;;4.70;99.90;;;;;;5038285;28;20205;-91
2022/11/06 08:12:42;;;;;;;6.25;5.07;;;4.90;99.90;;;;;;5037566;28;20726;-91
2022/11/06 08:15:09;;;;;;;9.10;4.38;;;5.20;99.90;;;;;;5039764;28;20749;-91
2022/11/06 08:17:36;;;;;;;4.82;4.40;;;5.40;99.90;;;;;;5039675;28;20311;-90
2022/11/06 08:20:03;;;;;;;4.38;3.90;;;5.50;99.90;;;;;;5037913;28;20200;-91
2022/11/06 08:22:30;;;;;;;4.10;3.60;;;5.70;99.90;;;;;;5038436;28;20289;-93
2022/11/06 08:24:57;;;;;;;5.50;3.88;;;5.90;99.90;;;;;;5038264;28;20709;-90
2022/11/06 08:27:27;;;;;;;6.22;4.03;;;6.00;99.90;;;;;;5038344;28;20226;-90
2022/11/06 08:29:56;;;;;;;6.75;4.55;;;6.10;99.90;;;;;;5053367;28;20401;-91
2022/11/06 08:32:23;;;;;;;5.75;3.90;;;6.30;99.90;;;;;;5018137;28;20314;-91
2022/11/06 08:34:49;;;;;;;5.53;3.75;;;6.50;99.90;;;;;;5071814;22;20224;-68
2022/11/06 08:37:16;;;;;;;5.70;3.95;;;6.50;99.90;;;;;;5045241;28;20227;-69
2022/11/06 08:39:43;;;;;;;5.10;4.15;;;6.60;99.90;;;;;;5052487;28;20202;-68
2022/11/06 08:42:10;;;;;;;6.85;4.95;;;6.90;99.90;;;;;;5049368;28;20217;-68
2022/11/06 08:44:37;;;;;;;5.10;4.00;;;7.70;99.90;;;;;;5050587;28;20737;-68
2022/11/06 08:47:06;;;;;;;6.50;4.75;;;8.50;99.90;;;;;;5052101;28;20629;-68
2022/11/06 08:49:33;;;;;;;4.53;3.88;;;8.90;99.90;;;;;;5052684;28;20301;-68
2022/11/06 08:52:00;;;;;;;6.90;5.00;;;9.30;99.90;;;;;;5051318;28;20601;-68
2022/11/06 08:54:26;;;;;;;4.78;4.15;;;9.60;99.90;;;;;;5052573;28;20227;-69
2022/11/06 08:56:53;;;;;;;5.75;4.40;;;9.90;99.90;;;;;;5052163;28;20236;-69
2022/11/06 08:59:21;;;;;;;5.22;4.55;;;10.30;99.90;;;;;;5051922;28;20206;-68
2022/11/06 09:01:50;;;;;;;7.22;5.35;;;10.50;99.90;;;;;;5051857;28;20198;-68
2022/11/06 09:04:19;;;;;;;5.07;4.43;;;10.50;99.90;;;;;;5051625;28;20205;-68
2022/11/06 09:06:47;;;;;;;5.03;3.97;;;10.70;99.90;;;;;;5052072;28;20209;-69
2022/11/06 09:09:14;;;;;;;6.80;4.75;;;11.00;99.90;;;;;;5052226;28;20301;-68
2022/11/06 09:11:41;;;;;;;4.40;4.00;;;11.30;99.90;;;;;;5050042;28;20212;-69
2022/11/06 09:14:08;;;;;;;5.13;4.03;;;11.70;99.90;;;;;;5062461;28;20685;-69
2022/11/06 09:16:34;;;;;;;4.72;4.28;;;12.10;99.90;;;;;;5052414;28;20233;-69
2022/11/06 09:19:01;;;;;;;5.07;3.90;;;12.40;99.90;;;;;;5051681;28;20212;-68
2022/11/06 09:21:29;;;;;;;4.50;3.53;;;12.70;99.90;;;;;;5051856;28;20292;-69
2022/11/06 09:23:56;;;;;;;5.28;3.95;;;12.60;99.90;;;;;;5051732;28;20228;-69
2022/11/06 09:26:23;;;;;;;4.20;3.75;;;12.30;99.90;;;;;;5051517;28;20236;-69
2022/11/06 09:28:50;;;;;;;4.90;3.92;;;12.50;99.90;;;;;;5050730;28;20212;-70
2022/11/06 09:31:16;;;;;;;4.18;3.60;;;12.60;99.90;;;;;;5051251;28;20205;-68
2022/11/06 09:33:43;;;;;;;4.22;3.60;;;12.40;99.90;;;;;;5051383;28;20222;-68
2022/11/06 09:36:10;;;;;;;4.32;3.03;;;12.50;99.90;;;;;;5051890;28;20221;-69
2022/11/06 09:38:38;;;;;;;3.67;3.00;;;12.50;99.90;;;;;;5051042;28;20412;-68
2022/11/06 09:41:06;;;;;;;3.38;3.05;;;12.70;99.90;;;;;;5051892;28;20204;-69
2022/11/06 09:43:50;;;;;;;3.13;2.83;;;12.80;99.90;;;;;;5049123;28;20201;-69
2022/11/06 09:46:23;;;;;;;3.83;2.73;;;13.00;99.90;;;;;;5051813;28;20221;-68
2022/11/06 09:48:56;;;;;;;3.45;2.90;;;13.10;99.90;;;;;;5051268;28;20827;-69
2022/11/06 09:51:31;;;;;;;3.90;3.30;;;12.90;99.90;;;;;;5050509;28;20201;-69
2022/11/06 09:54:03;;;;;;;3.50;3.20;;;12.80;99.90;;;;;;5051503;28;20510;-68
2022/11/06 09:56:34;;;;;;;3.50;2.70;;;13.10;99.90;;;;;;5051235;28;20460;-68
2022/11/06 09:59:05;;;;;;;3.40;3.10;;;13.60;99.90;;;;;;5051301;28;21393;-69
2022/11/06 10:01:38;;;;;;;3.43;2.30;;;13.90;99.90;;;;;;5051254;28;20859;-69
2022/11/06 10:04:05;;;;;;;3.13;2.83;;;14.20;99.90;;;;;;5051150;28;20452;-68
2022/11/06 10:06:33;;;;;;;3.40;3.00;;;14.00;99.90;;;;;;5051876;28;20464;-69
2022/11/06 10:09:05;;;;;;;2.97;2.50;;;14.30;99.90;;;;;;5051241;28;20468;-69
2022/11/06 10:11:57;;;;;;;4.30;3.90;;;14.60;99.90;;;;;;5050762;28;20467;-69
2022/11/06 10:14:37;;;;;;;2.73;2.50;;;14.90;99.90;;;;;;5031356;28;20481;-69
2022/11/06 10:17:17;;;;;;;3.53;3.23;;;15.10;99.90;;;;;;5031464;28;20457;-69
2022/11/06 10:19:51;;;;;;;2.80;2.60;;;14.70;99.90;;;;;;5031137;28;20975;-69
2022/11/06 10:22:25;;;;;;;2.77;2.47;;;14.50;99.90;;;;;;5030256;28;20837;-69
2022/11/06 10:25:01;;;;;;;3.77;2.93;;;14.70;99.90;;;;;;5035488;28;20491;-69
2022/11/06 10:27:37;;;;;;;3.27;2.97;;;14.80;99.90;;;;;;5049509;28;20962;-68
2022/11/06 10:30:09;;;;;;;2.87;2.67;;;14.80;99.90;;;;;;5050998;28;20456;-69
2022/11/06 10:33:01;;;;;;;2.63;2.43;;;14.80;99.90;;;;;;5050657;28;20484;-69
2022/11/06 10:35:34;;;;;;;2.80;2.43;;;14.40;99.90;;;;;;5050603;28;20480;-68
2022/11/06 10:38:06;;;;;;;5.03;2.43;;;14.30;99.90;;;;;;5048262;28;20452;-68
2022/11/06 10:40:34;;;;;;;2.40;2.20;;;14.50;99.90;;;;;;5050780;28;20469;-69
2022/11/06 10:43:09;;;;;;;3.10;2.70;;;14.50;99.90;;;;;;5049869;28;20463;-68
2022/11/06 10:45:40;;;;;;;2.67;2.30;;;14.40;99.90;;;;;;5050731;28;20982;-69
2022/11/06 10:48:20;;;;;;;4.83;2.70;;;14.10;99.90;;;;;;5050957;28;20463;-69
2022/11/06 10:50:59;;;;;;;2.70;2.13;;;13.90;99.90;;;;;;5050093;28;20456;-69
2022/11/06 10:53:35;;;;;;;2.30;2.10;;;13.90;99.90;;;;;;5050173;28;20613;-68
2022/11/06 10:56:26;;;;;;;2.40;2.20;;;13.80;99.90;;;;;;5048920;28;20990;-68
2022/11/06 10:58:53;;;;;;;2.87;2.57;;;13.50;99.90;;;;;;5050095;28;20471;-69
2022/11/06 11:01:20;;;;;;;2.93;2.67;;;13.20;99.90;;;;;;5049612;28;20529;-69
2022/11/06 11:03:48;;;;;;;2.43;2.23;;;13.10;99.90;;;;;;5050018;28;20948;-69
2022/11/06 11:06:15;;;;;;;3.30;2.80;;;12.90;99.90;;;;;;5050402;28;20495;-68
2022/11/06 11:08:43;;;;;;;2.37;2.17;;;12.70;99.90;;;;;;5050194;28;20982;-69
2022/11/06 11:11:19;;;;;;;3.00;2.37;;;12.60;99.90;;;;;;5049652;28;20966;-68
2022/11/06 11:13:49;;;;;;;2.30;1.97;;;12.50;99.90;;;;;;5041480;28;20486;-68
2022/11/06 11:16:18;;;;;;;1.77;1.60;;;12.60;99.90;;;;;;5046085;28;20476;-69
2022/11/06 11:18:45;;;;;;;2.43;2.23;;;12.70;99.90;;;;;;5046836;28;20460;-68
2022/11/06 11:21:22;;;;;;;2.90;2.30;;;12.60;99.90;;;;;;5068995;28;20471;-67
2022/11/06 11:24:06;;;;;;;2.13;1.90;;;12.50;99.90;;;;;;5069187;28;20467;-68
2022/11/06 11:26:36;;;;;;;2.53;2.20;;;12.60;99.90;;;;;;5068914;28;20474;-69
2022/11/06 11:29:16;;;;;;;2.90;2.60;;;12.60;99.90;;;;;;5069288;28;20974;-69
2022/11/06 11:31:47;;;;;;;2.47;2.28;;;12.70;99.90;;;;;;5068459;28;20894;-68
2022/11/06 11:34:19;;;;;;;2.70;2.50;;;12.90;99.90;;;;;;5068234;28;20233;-69
2022/11/06 11:36:52;;;;;;;3.40;2.40;;;12.50;99.90;;;;;;5069984;28;20212;-69
2022/11/06 11:39:21;;;;;;;3.83;2.93;;;12.50;99.90;;;;;;5069527;28;20201;-69
2022/11/06 11:41:48;;;;;;;7.28;3.33;;;12.70;99.90;;;;;;5069482;28;20810;-69
2022/11/06 11:44:18;;;;;;;3.88;3.47;;;13.00;99.90;;;;;;5069777;28;20579;-69
2022/11/06 11:46:50;;;;;;;4.13;3.83;;;13.30;99.90;;;;;;5069976;28;20208;-69
2022/11/06 11:49:28;;;;;;;4.80;4.00;;;13.50;99.90;;;;;;5069499;28;20881;-68
2022/11/06 11:51:56;;;;;;;4.23;3.83;;;13.70;99.90;;;;;;5068871;28;20473;-69
2022/11/06 11:54:26;;;;;;;3.40;3.10;;;13.70;99.90;;;;;;5069848;28;20854;-69
2022/11/06 11:56:55;;;;;;;4.00;3.20;;;13.80;99.90;;;;;;5050797;28;20460;-68
2022/11/06 11:59:26;;;;;;;2.83;2.60;;;13.80;99.90;;;;;;5048976;28;20460;-69
2022/11/06 12:01:53;;;;;;;3.43;3.13;;;13.70;99.90;;;;;;5048712;28;20543;-69
2022/11/06 12:04:24;;;;;;;3.50;3.20;;;13.80;99.90;;;;;;5048206;28;20919;-69
2022/11/06 12:06:55;;;;;;;2.93;2.63;;;13.90;99.90;;;;;;5048923;28;20483;-68
2022/11/06 12:09:22;;;;;;;4.43;3.40;;;13.80;99.90;;;;;;5049164;28;20455;-68
2022/11/06 12:11:50;;;;;;;3.50;3.20;;;13.70;99.90;;;;;;5047884;28;20468;-68
2022/11/06 12:14:30;;;;;;;3.20;2.90;;;13.60;99.90;;;;;;5048502;28;20491;-69
2022/11/06 12:17:01;;;;;;;3.00;2.67;;;13.50;99.90;;;;;;5048868;28;20482;-68
2022/11/06 12:19:32;;;;;;;4.23;3.00;;;13.60;99.90;;;;;;5048774;28;20460;-68
2022/11/06 12:22:04;;;;;;;6.93;4.33;;;13.60;99.90;;;;;;5047402;28;20463;-68
2022/11/06 12:24:38;;;;;;;3.30;3.00;;;13.60;99.90;;;;;;5048149;28;20551;-68
2022/11/06 12:27:10;;;;;;;3.20;2.90;;;13.40;99.90;;;;;;5048657;28;20488;-68
2022/11/06 12:29:42;;;;;;;3.73;2.80;;;13.40;99.90;;;;;;5047968;28;20467;-68
2022/11/06 12:32:22;;;;;;;3.27;2.97;;;13.50;99.90;;;;;;5048111;28;20456;-68
2022/11/06 12:34:54;;;;;;;3.30;2.97;;;13.50;99.90;;;;;;5048466;28;21026;-68
2022/11/06 12:37:28;;;;;;;3.87;3.03;;;13.50;99.90;;;;;;5048943;28;20467;-69
2022/11/06 12:40:14;;;;;;;3.30;2.93;;;13.30;99.90;;;;;;5048121;28;21154;-68
2022/11/06 12:42:48;;;;;;;3.60;3.20;;;13.10;99.90;;;;;;5048287;28;20478;-68
2022/11/06 12:45:16;;;;;;;3.20;2.90;;;12.80;99.90;;;;;;5048742;28;21006;-68
2022/11/06 12:47:48;;;;;;;3.13;2.72;;;12.60;99.90;;;;;;5052119;28;20851;-68
2022/11/06 12:50:27;;;;;;;4.80;3.17;;;12.30;99.90;;;;;;5045137;28;20201;-69
2022/11/06 12:53:14;;;;;;;3.33;3.03;;;12.00;99.90;;;;;;5039107;28;21190;-69
2022/11/06 12:55:49;;;;;;;3.53;3.20;;;11.80;99.90;;;;;;5040989;28;20221;-69
2022/11/06 12:58:38;;;;;;;3.83;2.70;;;11.80;99.90;;;;;;5042675;28;20190;-68
2022/11/06 13:01:15;;;;;;;3.78;3.13;;;11.70;99.90;;;;;;5041479;28;20211;-69
2022/11/06 13:04:11;;;;;;;3.15;2.63;;;11.70;99.90;;;;;;5068089;22;20237;-66
2022/11/06 13:07:01;;;;;;;3.35;2.80;;;11.70;99.90;;;;;;5015274;28;20571;-65
2022/11/06 13:09:32;;;;;;;3.42;3.13;;;11.80;99.90;;;;;;5040177;28;20748;-65
2022/11/06 13:12:07;;;;;;;3.38;3.08;;;11.70;99.90;;;;;;5040451;28;20194;-65
2022/11/06 13:14:39;;;;;;;3.25;2.70;;;11.70;99.90;;;;;;5032146;28;20606;-65
2022/11/06 13:17:15;;;;;;;3.60;3.05;;;11.80;99.90;;;;;;5032531;28;20209;-64
2022/11/06 13:19:50;;;;;;;4.05;2.92;;;11.90;99.90;;;;;;5032091;28;20206;-65